sensor_id;sensor_type;location;lat;lon;timestamp;P1;durP1;ratioP1;P2;durP2;ratioP2
55539;SDS011;41384;51.418;7.286;2023-04-24T00:02:17;1.42;;;0.50;;
55539;SDS011;41384;51.418;7.286;2023-04-24T00:04:43;0.73;;;0.50;;
55539;SDS011;41384;51.418;7.286;2023-04-24T00:07:10;0.43;;;0.43;;
55539;SDS011;41384;51.418;7.286;2023-04-24T00:09:36;0.63;;;0.60;;
55539;SDS011;41384;51.418;7.286;2023-04-24T00:12:01;0.50;;;0.50;;
55539;SDS011;41384;51.418;7.286;2023-04-24T00:14:29;0.68;;;0.63;;
55539;SDS011;41384;51.418;7.286;2023-04-24T00:16:54;1.00;;;0.90;;
55539;SDS011;41384;51.418;7.286;2023-04-24T00:19:20;1.67;;;0.70;;
55539;SDS011;41384;51.418;7.286;2023-04-24T00:21:46;2.53;;;0.70;;
55539;SDS011;41384;51.418;7.286;2023-04-24T00:24:11;1.90;;;0.80;;
55539;SDS011;41384;51.418;7.286;2023-04-24T00:26:37;1.92;;;0.63;;
55539;SDS011;41384;51.418;7.286;2023-04-24T00:29:02;3.85;;;0.80;;
55539;SDS011;41384;51.418;7.286;2023-04-24T00:31:27;1.33;;;0.80;;
55539;SDS011;41384;51.418;7.286;2023-04-24T00:33:52;1.00;;;0.70;;
55539;SDS011;41384;51.418;7.286;2023-04-24T00:36:18;2.13;;;0.82;;
55539;SDS011;41384;51.418;7.286;2023-04-24T00:38:45;2.03;;;1.05;;
55539;SDS011;41384;51.418;7.286;2023-04-24T00:41:10;2.05;;;0.80;;
55539;SDS011;41384;51.418;7.286;2023-04-24T00:43:36;1.45;;;0.95;;
55539;SDS011;41384;51.418;7.286;2023-04-24T00:46:01;1.88;;;0.90;;
55539;SDS011;41384;51.418;7.286;2023-04-24T00:48:27;1.65;;;1.23;;
55539;SDS011;41384;51.418;7.286;2023-04-24T00:50:52;1.10;;;1.00;;
55539;SDS011;41384;51.418;7.286;2023-04-24T00:53:18;1.83;;;1.15;;
55539;SDS011;41384;51.418;7.286;2023-04-24T00:55:43;1.77;;;1.05;;
55539;SDS011;41384;51.418;7.286;2023-04-24T00:58:09;1.75;;;1.20;;
55539;SDS011;41384;51.418;7.286;2023-04-24T01:00:34;1.60;;;1.10;;
55539;SDS011;41384;51.418;7.286;2023-04-24T01:03:00;1.98;;;1.00;;
55539;SDS011;41384;51.418;7.286;2023-04-24T01:05:28;1.02;;;0.90;;
55539;SDS011;41384;51.418;7.286;2023-04-24T01:07:54;4.03;;;1.13;;
55539;SDS011;41384;51.418;7.286;2023-04-24T01:10:20;2.25;;;1.23;;
55539;SDS011;41384;51.418;7.286;2023-04-24T01:12:45;1.55;;;1.10;;
55539;SDS011;41384;51.418;7.286;2023-04-24T01:15:11;1.42;;;1.33;;
55539;SDS011;41384;51.418;7.286;2023-04-24T01:17:36;2.33;;;1.40;;
55539;SDS011;41384;51.418;7.286;2023-04-24T01:20:03;1.67;;;1.10;;
55539;SDS011;41384;51.418;7.286;2023-04-24T01:22:30;1.83;;;1.00;;
55539;SDS011;41384;51.418;7.286;2023-04-24T01:24:55;1.27;;;1.15;;
55539;SDS011;41384;51.418;7.286;2023-04-24T01:27:21;3.28;;;1.10;;
55539;SDS011;41384;51.418;7.286;2023-04-24T01:29:46;1.92;;;1.10;;
55539;SDS011;41384;51.418;7.286;2023-04-24T01:32:16;1.30;;;1.20;;
55539;SDS011;41384;51.418;7.286;2023-04-24T01:34:43;1.92;;;1.10;;
55539;SDS011;41384;51.418;7.286;2023-04-24T01:37:09;1.95;;;1.10;;
55539;SDS011;41384;51.418;7.286;2023-04-24T01:39:35;2.28;;;1.20;;
55539;SDS011;41384;51.418;7.286;2023-04-24T01:42:00;1.83;;;1.48;;
55539;SDS011;41384;51.418;7.286;2023-04-24T01:44:27;2.08;;;0.93;;
55539;SDS011;41384;51.418;7.286;2023-04-24T01:46:54;2.70;;;1.48;;
55539;SDS011;41384;51.418;7.286;2023-04-24T01:49:20;1.63;;;1.25;;
55539;SDS011;41384;51.418;7.286;2023-04-24T01:51:45;3.28;;;1.30;;
55539;SDS011;41384;51.418;7.286;2023-04-24T01:54:11;2.67;;;1.25;;
55539;SDS011;41384;51.418;7.286;2023-04-24T01:56:38;2.20;;;1.20;;
55539;SDS011;41384;51.418;7.286;2023-04-24T01:59:07;1.98;;;1.30;;
55539;SDS011;41384;51.418;7.286;2023-04-24T02:01:34;2.05;;;1.20;;
55539;SDS011;41384;51.418;7.286;2023-04-24T02:04:03;2.72;;;1.50;;
55539;SDS011;41384;51.418;7.286;2023-04-24T02:06:29;2.40;;;1.60;;
55539;SDS011;41384;51.418;7.286;2023-04-24T02:08:56;2.40;;;1.50;;
55539;SDS011;41384;51.418;7.286;2023-04-24T02:11:22;2.35;;;1.67;;
55539;SDS011;41384;51.418;7.286;2023-04-24T02:13:47;4.45;;;2.40;;
55539;SDS011;41384;51.418;7.286;2023-04-24T02:16:12;3.83;;;2.30;;
55539;SDS011;41384;51.418;7.286;2023-04-24T02:18:37;4.38;;;2.72;;
55539;SDS011;41384;51.418;7.286;2023-04-24T02:21:03;3.30;;;2.60;;
55539;SDS011;41384;51.418;7.286;2023-04-24T02:23:28;3.65;;;2.92;;
55539;SDS011;41384;51.418;7.286;2023-04-24T02:25:53;3.33;;;2.45;;
55539;SDS011;41384;51.418;7.286;2023-04-24T02:28:19;3.88;;;2.45;;
55539;SDS011;41384;51.418;7.286;2023-04-24T02:30:44;4.47;;;2.70;;
55539;SDS011;41384;51.418;7.286;2023-04-24T02:33:10;4.82;;;2.90;;
55539;SDS011;41384;51.418;7.286;2023-04-24T02:35:36;4.43;;;2.67;;
55539;SDS011;41384;51.418;7.286;2023-04-24T02:38:01;4.35;;;3.08;;
55539;SDS011;41384;51.418;7.286;2023-04-24T02:40:28;7.00;;;3.80;;
55539;SDS011;41384;51.418;7.286;2023-04-24T02:42:53;8.15;;;3.55;;
55539;SDS011;41384;51.418;7.286;2023-04-24T02:45:18;5.05;;;3.40;;
55539;SDS011;41384;51.418;7.286;2023-04-24T02:47:43;5.10;;;3.70;;
55539;SDS011;41384;51.418;7.286;2023-04-24T02:50:09;5.47;;;3.97;;
55539;SDS011;41384;51.418;7.286;2023-04-24T02:52:34;6.72;;;4.15;;
55539;SDS011;41384;51.418;7.286;2023-04-24T02:54:59;7.90;;;4.47;;
55539;SDS011;41384;51.418;7.286;2023-04-24T02:57:25;8.82;;;4.85;;
55539;SDS011;41384;51.418;7.286;2023-04-24T02:59:50;7.43;;;4.70;;
55539;SDS011;41384;51.418;7.286;2023-04-24T03:02:15;6.90;;;4.78;;
55539;SDS011;41384;51.418;7.286;2023-04-24T03:04:40;6.10;;;4.53;;
55539;SDS011;41384;51.418;7.286;2023-04-24T03:07:07;9.98;;;4.80;;
55539;SDS011;41384;51.418;7.286;2023-04-24T03:09:33;7.57;;;4.80;;
55539;SDS011;41384;51.418;7.286;2023-04-24T03:11:58;7.13;;;4.82;;
55539;SDS011;41384;51.418;7.286;2023-04-24T03:14:23;8.93;;;5.50;;
55539;SDS011;41384;51.418;7.286;2023-04-24T03:16:48;9.93;;;5.50;;
55539;SDS011;41384;51.418;7.286;2023-04-24T03:19:15;12.00;;;5.63;;
55539;SDS011;41384;51.418;7.286;2023-04-24T03:21:40;10.43;;;5.93;;
55539;SDS011;41384;51.418;7.286;2023-04-24T03:24:08;11.48;;;6.20;;
55539;SDS011;41384;51.418;7.286;2023-04-24T03:26:34;8.18;;;5.63;;
55539;SDS011;41384;51.418;7.286;2023-04-24T03:29:00;8.75;;;5.20;;
55539;SDS011;41384;51.418;7.286;2023-04-24T03:31:25;9.65;;;5.53;;
55539;SDS011;41384;51.418;7.286;2023-04-24T03:33:51;8.57;;;6.13;;
55539;SDS011;41384;51.418;7.286;2023-04-24T03:36:16;11.65;;;6.50;;
55539;SDS011;41384;51.418;7.286;2023-04-24T03:38:42;9.82;;;6.40;;
55539;SDS011;41384;51.418;7.286;2023-04-24T03:41:07;11.05;;;6.38;;
55539;SDS011;41384;51.418;7.286;2023-04-24T03:43:32;8.48;;;5.97;;
55539;SDS011;41384;51.418;7.286;2023-04-24T03:45:59;10.13;;;6.40;;
55539;SDS011;41384;51.418;7.286;2023-04-24T03:48:25;10.60;;;6.43;;
55539;SDS011;41384;51.418;7.286;2023-04-24T03:50:50;11.25;;;6.85;;
55539;SDS011;41384;51.418;7.286;2023-04-24T03:53:15;10.70;;;6.45;;
55539;SDS011;41384;51.418;7.286;2023-04-24T03:55:40;12.73;;;6.50;;
55539;SDS011;41384;51.418;7.286;2023-04-24T03:58:06;11.98;;;6.45;;
55539;SDS011;41384;51.418;7.286;2023-04-24T04:00:31;11.80;;;6.70;;
55539;SDS011;41384;51.418;7.286;2023-04-24T04:02:57;9.15;;;6.07;;
55539;SDS011;41384;51.418;7.286;2023-04-24T04:05:22;11.48;;;7.68;;
55539;SDS011;41384;51.418;7.286;2023-04-24T04:07:47;9.73;;;6.22;;
55539;SDS011;41384;51.418;7.286;2023-04-24T04:10:13;12.07;;;7.38;;
55539;SDS011;41384;51.418;7.286;2023-04-24T04:12:38;11.77;;;7.70;;
55539;SDS011;41384;51.418;7.286;2023-04-24T04:15:03;13.93;;;6.70;;
55539;SDS011;41384;51.418;7.286;2023-04-24T04:17:30;15.80;;;8.32;;
55539;SDS011;41384;51.418;7.286;2023-04-24T04:19:56;12.57;;;7.68;;
55539;SDS011;41384;51.418;7.286;2023-04-24T04:22:22;11.80;;;7.45;;
55539;SDS011;41384;51.418;7.286;2023-04-24T04:24:47;12.75;;;7.55;;
55539;SDS011;41384;51.418;7.286;2023-04-24T04:27:12;10.25;;;7.07;;
55539;SDS011;41384;51.418;7.286;2023-04-24T04:29:38;10.90;;;7.78;;
55539;SDS011;41384;51.418;7.286;2023-04-24T04:32:03;11.10;;;7.13;;
55539;SDS011;41384;51.418;7.286;2023-04-24T04:34:28;11.68;;;7.35;;
55539;SDS011;41384;51.418;7.286;2023-04-24T04:36:54;12.90;;;7.53;;
55539;SDS011;41384;51.418;7.286;2023-04-24T04:39:20;9.93;;;6.60;;
55539;SDS011;41384;51.418;7.286;2023-04-24T04:41:45;13.73;;;7.05;;
55539;SDS011;41384;51.418;7.286;2023-04-24T04:44:13;11.52;;;7.40;;
55539;SDS011;41384;51.418;7.286;2023-04-24T04:46:39;12.82;;;7.18;;
55539;SDS011;41384;51.418;7.286;2023-04-24T04:49:04;13.50;;;7.85;;
55539;SDS011;41384;51.418;7.286;2023-04-24T04:51:29;12.60;;;8.23;;
55539;SDS011;41384;51.418;7.286;2023-04-24T04:53:56;13.45;;;7.50;;
55539;SDS011;41384;51.418;7.286;2023-04-24T04:56:21;11.85;;;8.25;;
55539;SDS011;41384;51.418;7.286;2023-04-24T04:58:47;11.82;;;7.75;;
55539;SDS011;41384;51.418;7.286;2023-04-24T05:01:12;13.77;;;8.30;;
55539;SDS011;41384;51.418;7.286;2023-04-24T05:03:37;14.10;;;8.25;;
55539;SDS011;41384;51.418;7.286;2023-04-24T05:06:03;15.05;;;7.50;;
55539;SDS011;41384;51.418;7.286;2023-04-24T05:08:28;10.68;;;8.30;;
55539;SDS011;41384;51.418;7.286;2023-04-24T05:10:54;11.55;;;7.38;;
55539;SDS011;41384;51.418;7.286;2023-04-24T05:13:20;13.88;;;7.50;;
55539;SDS011;41384;51.418;7.286;2023-04-24T05:15:45;11.02;;;6.70;;
55539;SDS011;41384;51.418;7.286;2023-04-24T05:18:11;10.38;;;6.70;;
55539;SDS011;41384;51.418;7.286;2023-04-24T05:20:36;9.77;;;6.90;;
55539;SDS011;41384;51.418;7.286;2023-04-24T05:23:01;8.40;;;6.40;;
55539;SDS011;41384;51.418;7.286;2023-04-24T05:25:27;10.35;;;6.47;;
55539;SDS011;41384;51.418;7.286;2023-04-24T05:27:52;15.32;;;7.10;;
55539;SDS011;41384;51.418;7.286;2023-04-24T05:30:18;9.82;;;6.32;;
55539;SDS011;41384;51.418;7.286;2023-04-24T05:32:44;14.38;;;6.75;;
55539;SDS011;41384;51.418;7.286;2023-04-24T05:35:09;8.75;;;6.32;;
55539;SDS011;41384;51.418;7.286;2023-04-24T05:37:35;10.77;;;6.45;;
55539;SDS011;41384;51.418;7.286;2023-04-24T05:40:00;10.38;;;6.78;;
55539;SDS011;41384;51.418;7.286;2023-04-24T05:42:25;10.20;;;6.78;;
55539;SDS011;41384;51.418;7.286;2023-04-24T05:44:51;12.90;;;7.53;;
55539;SDS011;41384;51.418;7.286;2023-04-24T05:47:16;11.63;;;6.95;;
55539;SDS011;41384;51.418;7.286;2023-04-24T05:49:41;10.73;;;6.30;;
55539;SDS011;41384;51.418;7.286;2023-04-24T05:52:06;10.88;;;7.13;;
55539;SDS011;41384;51.418;7.286;2023-04-24T05:54:33;10.13;;;6.90;;
55539;SDS011;41384;51.418;7.286;2023-04-24T05:56:59;11.70;;;7.57;;
55539;SDS011;41384;51.418;7.286;2023-04-24T05:59:25;9.30;;;7.22;;
55539;SDS011;41384;51.418;7.286;2023-04-24T06:01:51;10.18;;;7.05;;
55539;SDS011;41384;51.418;7.286;2023-04-24T06:04:16;12.38;;;6.38;;
55539;SDS011;41384;51.418;7.286;2023-04-24T06:06:41;13.15;;;6.88;;
55539;SDS011;41384;51.418;7.286;2023-04-24T06:09:07;8.85;;;6.03;;
55539;SDS011;41384;51.418;7.286;2023-04-24T06:11:32;8.35;;;6.07;;
55539;SDS011;41384;51.418;7.286;2023-04-24T06:13:57;8.45;;;6.15;;
55539;SDS011;41384;51.418;7.286;2023-04-24T06:16:22;10.18;;;5.95;;
55539;SDS011;41384;51.418;7.286;2023-04-24T06:18:47;7.72;;;5.38;;
55539;SDS011;41384;51.418;7.286;2023-04-24T06:21:13;7.75;;;5.25;;
55539;SDS011;41384;51.418;7.286;2023-04-24T06:23:38;7.65;;;5.20;;
55539;SDS011;41384;51.418;7.286;2023-04-24T06:26:04;6.32;;;4.53;;
55539;SDS011;41384;51.418;7.286;2023-04-24T06:28:29;6.38;;;4.78;;
55539;SDS011;41384;51.418;7.286;2023-04-24T06:30:54;6.45;;;4.30;;
55539;SDS011;41384;51.418;7.286;2023-04-24T06:33:20;8.05;;;5.10;;
55539;SDS011;41384;51.418;7.286;2023-04-24T06:35:46;8.50;;;4.97;;
55539;SDS011;41384;51.418;7.286;2023-04-24T06:38:11;7.25;;;4.72;;
55539;SDS011;41384;51.418;7.286;2023-04-24T06:40:36;6.68;;;5.30;;
55539;SDS011;41384;51.418;7.286;2023-04-24T06:43:02;7.55;;;5.50;;
55539;SDS011;41384;51.418;7.286;2023-04-24T06:45:28;7.13;;;5.20;;
55539;SDS011;41384;51.418;7.286;2023-04-24T06:47:54;7.63;;;5.28;;
55539;SDS011;41384;51.418;7.286;2023-04-24T06:50:19;10.13;;;5.32;;
55539;SDS011;41384;51.418;7.286;2023-04-24T06:52:44;6.47;;;5.00;;
55539;SDS011;41384;51.418;7.286;2023-04-24T06:55:10;5.30;;;4.30;;
55539;SDS011;41384;51.418;7.286;2023-04-24T06:57:36;6.45;;;5.05;;
55539;SDS011;41384;51.418;7.286;2023-04-24T07:00:01;5.30;;;4.28;;
55539;SDS011;41384;51.418;7.286;2023-04-24T07:02:28;7.18;;;4.65;;
55539;SDS011;41384;51.418;7.286;2023-04-24T07:04:53;7.55;;;5.00;;
55539;SDS011;41384;51.418;7.286;2023-04-24T07:07:18;8.90;;;4.57;;
55539;SDS011;41384;51.418;7.286;2023-04-24T07:09:44;6.40;;;4.55;;
55539;SDS011;41384;51.418;7.286;2023-04-24T07:12:10;6.57;;;4.35;;
55539;SDS011;41384;51.418;7.286;2023-04-24T07:14:36;6.00;;;4.65;;
55539;SDS011;41384;51.418;7.286;2023-04-24T07:17:02;6.53;;;4.55;;
55539;SDS011;41384;51.418;7.286;2023-04-24T07:19:28;6.57;;;4.72;;
55539;SDS011;41384;51.418;7.286;2023-04-24T07:21:54;5.68;;;3.97;;
55539;SDS011;41384;51.418;7.286;2023-04-24T07:24:20;4.80;;;3.97;;
55539;SDS011;41384;51.418;7.286;2023-04-24T07:26:45;7.80;;;3.90;;
55539;SDS011;41384;51.418;7.286;2023-04-24T07:29:11;4.13;;;3.28;;
55539;SDS011;41384;51.418;7.286;2023-04-24T07:31:38;5.95;;;3.60;;
55539;SDS011;41384;51.418;7.286;2023-04-24T07:34:03;4.72;;;2.85;;
55539;SDS011;41384;51.418;7.286;2023-04-24T07:36:29;4.40;;;3.00;;
55539;SDS011;41384;51.418;7.286;2023-04-24T07:38:54;3.20;;;2.70;;
55539;SDS011;41384;51.418;7.286;2023-04-24T07:41:20;4.30;;;2.65;;
55539;SDS011;41384;51.418;7.286;2023-04-24T07:50:30;3.10;;;1.70;;
55539;SDS011;41384;51.418;7.286;2023-04-24T07:52:56;2.40;;;1.98;;
55539;SDS011;41384;51.418;7.286;2023-04-24T08:12:05;1.92;;;1.40;;
55539;SDS011;41384;51.418;7.286;2023-04-24T08:14:30;3.30;;;1.00;;
55539;SDS011;41384;51.418;7.286;2023-04-24T08:16:55;1.73;;;0.90;;
55539;SDS011;41384;51.418;7.286;2023-04-24T08:19:21;1.00;;;0.70;;
55539;SDS011;41384;51.418;7.286;2023-04-24T08:21:46;0.68;;;0.60;;
55539;SDS011;41384;51.418;7.286;2023-04-24T08:24:11;0.77;;;0.60;;
55539;SDS011;41384;51.418;7.286;2023-04-24T08:26:37;0.98;;;0.60;;
55539;SDS011;41384;51.418;7.286;2023-04-24T08:29:02;0.43;;;0.43;;
55539;SDS011;41384;51.418;7.286;2023-04-24T08:31:27;0.65;;;0.50;;
55539;SDS011;41384;51.418;7.286;2023-04-24T08:33:53;0.47;;;0.40;;
55539;SDS011;41384;51.418;7.286;2023-04-24T08:36:18;0.50;;;0.50;;
55539;SDS011;41384;51.418;7.286;2023-04-24T08:38:43;0.70;;;0.70;;
55539;SDS011;41384;51.418;7.286;2023-04-24T08:41:11;1.10;;;0.60;;
55539;SDS011;41384;51.418;7.286;2023-04-24T08:43:36;0.63;;;0.55;;
55539;SDS011;41384;51.418;7.286;2023-04-24T08:46:03;0.60;;;0.60;;
55539;SDS011;41384;51.418;7.286;2023-04-24T08:48:29;0.65;;;0.60;;
55539;SDS011;41384;51.418;7.286;2023-04-24T08:50:56;0.93;;;0.75;;
55539;SDS011;41384;51.418;7.286;2023-04-24T08:53:22;0.40;;;0.40;;
55539;SDS011;41384;51.418;7.286;2023-04-24T08:55:50;0.75;;;0.60;;
55539;SDS011;41384;51.418;7.286;2023-04-24T08:58:16;1.05;;;0.80;;
55539;SDS011;41384;51.418;7.286;2023-04-24T09:00:42;0.80;;;0.70;;
55539;SDS011;41384;51.418;7.286;2023-04-24T09:03:11;1.15;;;0.60;;
55539;SDS011;41384;51.418;7.286;2023-04-24T09:05:39;1.05;;;0.60;;
55539;SDS011;41384;51.418;7.286;2023-04-24T09:08:10;0.77;;;0.60;;
55539;SDS011;41384;51.418;7.286;2023-04-24T09:10:38;0.85;;;0.70;;
55539;SDS011;41384;51.418;7.286;2023-04-24T09:13:04;3.55;;;0.90;;
55539;SDS011;41384;51.418;7.286;2023-04-24T09:15:30;0.65;;;0.65;;
55539;SDS011;41384;51.418;7.286;2023-04-24T09:17:56;1.17;;;1.00;;
55539;SDS011;41384;51.418;7.286;2023-04-24T09:20:21;1.02;;;0.95;;
55539;SDS011;41384;51.418;7.286;2023-04-24T09:22:47;1.75;;;0.98;;
55539;SDS011;41384;51.418;7.286;2023-04-24T09:25:12;2.42;;;0.90;;
55539;SDS011;41384;51.418;7.286;2023-04-24T09:27:41;2.00;;;1.10;;
55539;SDS011;41384;51.418;7.286;2023-04-24T09:30:09;1.73;;;1.00;;
55539;SDS011;41384;51.418;7.286;2023-04-24T09:32:34;2.50;;;1.40;;
55539;SDS011;41384;51.418;7.286;2023-04-24T09:35:10;1.15;;;1.05;;
55539;SDS011;41384;51.418;7.286;2023-04-24T09:37:38;2.58;;;1.13;;
55539;SDS011;41384;51.418;7.286;2023-04-24T09:40:09;1.20;;;1.10;;
55539;SDS011;41384;51.418;7.286;2023-04-24T09:42:40;1.88;;;1.30;;
55539;SDS011;41384;51.418;7.286;2023-04-24T09:45:09;1.55;;;1.23;;
55539;SDS011;41384;51.418;7.286;2023-04-24T09:47:37;2.78;;;1.60;;
55539;SDS011;41384;51.418;7.286;2023-04-24T09:50:09;1.52;;;1.38;;
55539;SDS011;41384;51.418;7.286;2023-04-24T09:52:44;2.40;;;1.88;;
55539;SDS011;41384;51.418;7.286;2023-04-24T09:55:30;2.95;;;2.40;;
55539;SDS011;41384;51.418;7.286;2023-04-24T09:58:00;2.75;;;2.45;;
55539;SDS011;41384;51.418;7.286;2023-04-24T10:00:30;3.50;;;2.80;;
55539;SDS011;41384;51.418;7.286;2023-04-24T10:02:57;4.35;;;3.00;;
55539;SDS011;41384;51.418;7.286;2023-04-24T10:05:24;4.25;;;3.03;;
55539;SDS011;41384;51.418;7.286;2023-04-24T10:07:51;4.55;;;3.30;;
55539;SDS011;41384;51.418;7.286;2023-04-24T10:10:22;4.72;;;2.55;;
55539;SDS011;41384;51.418;7.286;2023-04-24T10:12:47;3.45;;;2.08;;
55539;SDS011;41384;51.418;7.286;2023-04-24T10:15:14;3.38;;;2.00;;
55539;SDS011;41384;51.418;7.286;2023-04-24T10:17:41;4.28;;;2.42;;
55539;SDS011;41384;51.418;7.286;2023-04-24T10:20:09;3.35;;;2.33;;
55539;SDS011;41384;51.418;7.286;2023-04-24T10:22:35;5.85;;;1.98;;
55539;SDS011;41384;51.418;7.286;2023-04-24T10:25:02;3.95;;;2.38;;
55539;SDS011;41384;51.418;7.286;2023-04-24T10:27:29;4.63;;;2.20;;
55539;SDS011;41384;51.418;7.286;2023-04-24T10:29:55;2.35;;;2.10;;
55539;SDS011;41384;51.418;7.286;2023-04-24T10:32:21;4.00;;;2.30;;
55539;SDS011;41384;51.418;7.286;2023-04-24T10:34:46;3.13;;;1.90;;
55539;SDS011;41384;51.418;7.286;2023-04-24T10:37:12;3.47;;;2.30;;
55539;SDS011;41384;51.418;7.286;2023-04-24T10:39:38;3.90;;;2.30;;
55539;SDS011;41384;51.418;7.286;2023-04-24T10:42:15;5.35;;;2.50;;
55539;SDS011;41384;51.418;7.286;2023-04-24T10:44:40;4.47;;;2.38;;
55539;SDS011;41384;51.418;7.286;2023-04-24T10:47:06;3.42;;;2.78;;
55539;SDS011;41384;51.418;7.286;2023-04-24T10:49:39;3.78;;;2.63;;
55539;SDS011;41384;51.418;7.286;2023-04-24T10:52:05;4.85;;;2.33;;
55539;SDS011;41384;51.418;7.286;2023-04-24T10:59:48;5.22;;;3.00;;
55539;SDS011;41384;51.418;7.286;2023-04-24T11:02:20;6.03;;;3.35;;
55539;SDS011;41384;51.418;7.286;2023-04-24T11:05:02;5.35;;;3.25;;
55539;SDS011;41384;51.418;7.286;2023-04-24T11:07:28;5.68;;;3.17;;
55539;SDS011;41384;51.418;7.286;2023-04-24T11:10:00;10.85;;;3.65;;
55539;SDS011;41384;51.418;7.286;2023-04-24T11:12:26;7.97;;;3.97;;
55539;SDS011;41384;51.418;7.286;2023-04-24T11:17:30;6.72;;;3.22;;
55539;SDS011;41384;51.418;7.286;2023-04-24T11:22:33;7.95;;;3.95;;
55539;SDS011;41384;51.418;7.286;2023-04-24T11:25:04;6.85;;;4.03;;
55539;SDS011;41384;51.418;7.286;2023-04-24T11:27:30;7.45;;;3.53;;
55539;SDS011;41384;51.418;7.286;2023-04-24T11:35:18;9.75;;;3.90;;
55539;SDS011;41384;51.418;7.286;2023-04-24T11:37:46;9.40;;;3.70;;
55539;SDS011;41384;51.418;7.286;2023-04-24T11:40:17;8.60;;;3.88;;
55539;SDS011;41384;51.418;7.286;2023-04-24T11:42:45;6.75;;;3.58;;
55539;SDS011;41384;51.418;7.286;2023-04-24T11:45:13;11.85;;;4.13;;
55539;SDS011;41384;51.418;7.286;2023-04-24T11:47:40;11.32;;;4.40;;
55539;SDS011;41384;51.418;7.286;2023-04-24T11:50:07;11.05;;;4.45;;
55539;SDS011;41384;51.418;7.286;2023-04-24T11:52:38;8.45;;;4.45;;
55539;SDS011;41384;51.418;7.286;2023-04-24T11:55:06;7.20;;;3.60;;
55539;SDS011;41384;51.418;7.286;2023-04-24T11:57:48;10.15;;;4.40;;
55539;SDS011;41384;51.418;7.286;2023-04-24T12:02:40;9.75;;;4.72;;
55539;SDS011;41384;51.418;7.286;2023-04-24T12:05:05;11.13;;;4.18;;
55539;SDS011;41384;51.418;7.286;2023-04-24T12:07:31;9.32;;;4.10;;
55539;SDS011;41384;51.418;7.286;2023-04-24T12:10:07;9.90;;;4.45;;
55539;SDS011;41384;51.418;7.286;2023-04-24T12:12:34;7.30;;;3.05;;
55539;SDS011;41384;51.418;7.286;2023-04-24T12:15:01;10.98;;;3.85;;
55539;SDS011;41384;51.418;7.286;2023-04-24T12:17:32;7.78;;;2.85;;
55539;SDS011;41384;51.418;7.286;2023-04-24T12:20:04;7.82;;;2.85;;
55539;SDS011;41384;51.418;7.286;2023-04-24T12:25:17;6.63;;;2.65;;
55539;SDS011;41384;51.418;7.286;2023-04-24T12:27:44;5.05;;;2.60;;
55539;SDS011;41384;51.418;7.286;2023-04-24T12:30:12;5.90;;;2.78;;
55539;SDS011;41384;51.418;7.286;2023-04-24T12:32:48;5.47;;;2.80;;
55539;SDS011;41384;51.418;7.286;2023-04-24T12:35:22;5.85;;;2.72;;
55539;SDS011;41384;51.418;7.286;2023-04-24T12:37:48;10.55;;;3.30;;
55539;SDS011;41384;51.418;7.286;2023-04-24T12:40:15;7.22;;;2.90;;
55539;SDS011;41384;51.418;7.286;2023-04-24T12:42:46;7.30;;;3.22;;
55539;SDS011;41384;51.418;7.286;2023-04-24T12:45:13;7.43;;;2.67;;
55539;SDS011;41384;51.418;7.286;2023-04-24T12:47:39;6.45;;;2.92;;
55539;SDS011;41384;51.418;7.286;2023-04-24T12:50:06;6.18;;;2.92;;
55539;SDS011;41384;51.418;7.286;2023-04-24T12:52:32;6.55;;;2.97;;
55539;SDS011;41384;51.418;7.286;2023-04-24T12:54:58;6.93;;;3.10;;
55539;SDS011;41384;51.418;7.286;2023-04-24T12:57:25;5.13;;;2.78;;
55539;SDS011;41384;51.418;7.286;2023-04-24T12:59:56;5.78;;;2.65;;
55539;SDS011;41384;51.418;7.286;2023-04-24T13:02:23;8.05;;;2.53;;
55539;SDS011;41384;51.418;7.286;2023-04-24T13:04:50;6.93;;;2.55;;
55539;SDS011;41384;51.418;7.286;2023-04-24T13:07:15;7.03;;;2.63;;
55539;SDS011;41384;51.418;7.286;2023-04-24T13:09:42;7.63;;;2.60;;
55539;SDS011;41384;51.418;7.286;2023-04-24T13:12:08;6.32;;;2.50;;
55539;SDS011;41384;51.418;7.286;2023-04-24T13:14:35;4.50;;;2.30;;
55539;SDS011;41384;51.418;7.286;2023-04-24T13:17:00;7.35;;;2.60;;
55539;SDS011;41384;51.418;7.286;2023-04-24T13:19:26;3.65;;;2.17;;
55539;SDS011;41384;51.418;7.286;2023-04-24T13:21:52;7.25;;;2.50;;
55539;SDS011;41384;51.418;7.286;2023-04-24T13:24:19;7.13;;;2.03;;
55539;SDS011;41384;51.418;7.286;2023-04-24T13:26:44;4.55;;;2.17;;
55539;SDS011;41384;51.418;7.286;2023-04-24T13:29:10;5.20;;;2.08;;
55539;SDS011;41384;51.418;7.286;2023-04-24T13:31:35;6.28;;;2.55;;
55539;SDS011;41384;51.418;7.286;2023-04-24T13:34:01;5.97;;;1.83;;
55539;SDS011;41384;51.418;7.286;2023-04-24T13:36:27;4.90;;;1.50;;
55539;SDS011;41384;51.418;7.286;2023-04-24T13:38:53;3.50;;;1.45;;
55539;SDS011;41384;51.418;7.286;2023-04-24T13:41:18;3.50;;;1.40;;
55539;SDS011;41384;51.418;7.286;2023-04-24T13:43:43;3.42;;;1.40;;
55539;SDS011;41384;51.418;7.286;2023-04-24T13:46:09;2.35;;;1.48;;
55539;SDS011;41384;51.418;7.286;2023-04-24T13:48:34;4.25;;;1.48;;
55539;SDS011;41384;51.418;7.286;2023-04-24T13:50:59;3.88;;;1.70;;
55539;SDS011;41384;51.418;7.286;2023-04-24T13:53:25;2.47;;;1.65;;
55539;SDS011;41384;51.418;7.286;2023-04-24T13:55:50;3.53;;;1.48;;
55539;SDS011;41384;51.418;7.286;2023-04-24T13:58:16;5.57;;;1.58;;
55539;SDS011;41384;51.418;7.286;2023-04-24T14:00:41;3.85;;;1.60;;
55539;SDS011;41384;51.418;7.286;2023-04-24T14:03:06;4.43;;;1.50;;
55539;SDS011;41384;51.418;7.286;2023-04-24T14:05:32;3.03;;;1.65;;
55539;SDS011;41384;51.418;7.286;2023-04-24T14:07:57;3.63;;;1.52;;
55539;SDS011;41384;51.418;7.286;2023-04-24T14:10:23;3.75;;;1.45;;
55539;SDS011;41384;51.418;7.286;2023-04-24T14:12:48;8.05;;;1.50;;
55539;SDS011;41384;51.418;7.286;2023-04-24T14:15:13;5.15;;;1.30;;
55539;SDS011;41384;51.418;7.286;2023-04-24T14:17:39;2.60;;;1.20;;
55539;SDS011;41384;51.418;7.286;2023-04-24T14:20:04;3.70;;;1.13;;
55539;SDS011;41384;51.418;7.286;2023-04-24T14:22:30;2.83;;;1.30;;
55539;SDS011;41384;51.418;7.286;2023-04-24T14:24:55;3.20;;;1.13;;
55539;SDS011;41384;51.418;7.286;2023-04-24T14:27:21;5.10;;;1.30;;
55539;SDS011;41384;51.418;7.286;2023-04-24T14:29:46;3.80;;;1.20;;
55539;SDS011;41384;51.418;7.286;2023-04-24T14:32:11;3.33;;;1.33;;
55539;SDS011;41384;51.418;7.286;2023-04-24T14:34:39;4.45;;;1.30;;
55539;SDS011;41384;51.418;7.286;2023-04-24T14:37:05;3.30;;;1.60;;
55539;SDS011;41384;51.418;7.286;2023-04-24T14:39:30;4.35;;;1.90;;
55539;SDS011;41384;51.418;7.286;2023-04-24T14:41:55;5.30;;;2.03;;
55539;SDS011;41384;51.418;7.286;2023-04-24T14:44:21;4.82;;;2.03;;
55539;SDS011;41384;51.418;7.286;2023-04-24T14:46:47;4.03;;;1.98;;
55539;SDS011;41384;51.418;7.286;2023-04-24T14:49:13;2.88;;;1.90;;
55539;SDS011;41384;51.418;7.286;2023-04-24T14:51:39;4.07;;;1.77;;
55539;SDS011;41384;51.418;7.286;2023-04-24T14:54:05;4.07;;;1.90;;
55539;SDS011;41384;51.418;7.286;2023-04-24T14:56:31;3.00;;;1.48;;
55539;SDS011;41384;51.418;7.286;2023-04-24T14:58:56;1.98;;;1.23;;
55539;SDS011;41384;51.418;7.286;2023-04-24T15:01:22;1.80;;;1.40;;
55539;SDS011;41384;51.418;7.286;2023-04-24T15:03:47;3.67;;;1.30;;
55539;SDS011;41384;51.418;7.286;2023-04-24T15:06:12;4.43;;;1.50;;
55539;SDS011;41384;51.418;7.286;2023-04-24T15:08:37;3.58;;;1.13;;
55539;SDS011;41384;51.418;7.286;2023-04-24T15:11:03;2.88;;;1.30;;
55539;SDS011;41384;51.418;7.286;2023-04-24T15:13:29;2.85;;;1.20;;
55539;SDS011;41384;51.418;7.286;2023-04-24T15:15:54;2.35;;;1.58;;
55539;SDS011;41384;51.418;7.286;2023-04-24T15:18:19;2.45;;;1.33;;
55539;SDS011;41384;51.418;7.286;2023-04-24T15:20:44;4.82;;;1.80;;
55539;SDS011;41384;51.418;7.286;2023-04-24T15:23:10;4.63;;;1.95;;
55539;SDS011;41384;51.418;7.286;2023-04-24T15:25:36;3.20;;;1.42;;